sensor_id;sensor_type;location;lat;lon;timestamp;temperature;humidity
43991;DHT22;29654;50.784;20.604;2023-07-13T00:00:44;27.10;50.60
43991;DHT22;29654;50.784;20.604;2023-07-13T00:05:46;27.00;50.80
43991;DHT22;29654;50.784;20.604;2023-07-13T00:10:51;27.00;50.80
43991;DHT22;29654;50.784;20.604;2023-07-13T00:15:57;27.00;51.20
43991;DHT22;29654;50.784;20.604;2023-07-13T00:21:02;27.00;51.30
43991;DHT22;29654;50.784;20.604;2023-07-13T00:26:09;27.00;51.00
43991;DHT22;29654;50.784;20.604;2023-07-13T00:31:15;27.10;51.40
43991;DHT22;29654;50.784;20.604;2023-07-13T00:36:19;27.10;51.30
43991;DHT22;29654;50.784;20.604;2023-07-13T00:41:22;27.00;51.10
43991;DHT22;29654;50.784;20.604;2023-07-13T00:46:29;27.00;51.20
43991;DHT22;29654;50.784;20.604;2023-07-13T00:51:36;27.00;51.50
43991;DHT22;29654;50.784;20.604;2023-07-13T00:56:44;27.00;51.50
43991;DHT22;29654;50.784;20.604;2023-07-13T01:01:49;26.90;51.30
43991;DHT22;29654;50.784;20.604;2023-07-13T01:06:52;26.90;51.40
43991;DHT22;29654;50.784;20.604;2023-07-13T01:11:55;26.90;51.40
43991;DHT22;29654;50.784;20.604;2023-07-13T01:17:00;26.80;51.50
43991;DHT22;29654;50.784;20.604;2023-07-13T01:22:07;26.70;51.60
43991;DHT22;29654;50.784;20.604;2023-07-13T01:27:14;26.70;51.80
43991;DHT22;29654;50.784;20.604;2023-07-13T01:32:19;26.60;51.60
43991;DHT22;29654;50.784;20.604;2023-07-13T01:37:26;26.60;51.80
43991;DHT22;29654;50.784;20.604;2023-07-13T01:42:33;26.60;52.20
43991;DHT22;29654;50.784;20.604;2023-07-13T01:47:35;26.60;52.00
43991;DHT22;29654;50.784;20.604;2023-07-13T01:52:40;26.60;52.10
43991;DHT22;29654;50.784;20.604;2023-07-13T01:57:42;26.60;52.30
43991;DHT22;29654;50.784;20.604;2023-07-13T02:02:45;26.60;52.20
43991;DHT22;29654;50.784;20.604;2023-07-13T02:07:50;26.60;52.30
43991;DHT22;29654;50.784;20.604;2023-07-13T02:12:53;26.70;52.50
43991;DHT22;29654;50.784;20.604;2023-07-13T02:17:56;26.70;52.30
43991;DHT22;29654;50.784;20.604;2023-07-13T02:23:00;26.70;52.30
43991;DHT22;29654;50.784;20.604;2023-07-13T02:28:03;26.70;52.40
43991;DHT22;29654;50.784;20.604;2023-07-13T02:33:06;26.80;52.50
43991;DHT22;29654;50.784;20.604;2023-07-13T02:38:10;26.80;52.50
43991;DHT22;29654;50.784;20.604;2023-07-13T02:43:12;26.80;52.60
43991;DHT22;29654;50.784;20.604;2023-07-13T02:48:15;26.80;52.60
43991;DHT22;29654;50.784;20.604;2023-07-13T02:53:20;26.80;52.50
43991;DHT22;29654;50.784;20.604;2023-07-13T02:58:23;26.80;52.60
43991;DHT22;29654;50.784;20.604;2023-07-13T03:03:30;26.80;52.60
43991;DHT22;29654;50.784;20.604;2023-07-13T03:08:34;26.80;52.50
43991;DHT22;29654;50.784;20.604;2023-07-13T03:13:37;26.70;52.70
43991;DHT22;29654;50.784;20.604;2023-07-13T03:18:40;26.70;52.80
43991;DHT22;29654;50.784;20.604;2023-07-13T03:23:48;26.70;52.80
43991;DHT22;29654;50.784;20.604;2023-07-13T03:28:50;26.70;52.90
43991;DHT22;29654;50.784;20.604;2023-07-13T03:33:57;26.70;52.80
43991;DHT22;29654;50.784;20.604;2023-07-13T03:39:02;26.70;52.90
43991;DHT22;29654;50.784;20.604;2023-07-13T03:44:22;26.70;53.30
43991;DHT22;29654;50.784;20.604;2023-07-13T03:49:29;26.70;53.10
43991;DHT22;29654;50.784;20.604;2023-07-13T03:54:33;26.70;53.20
43991;DHT22;29654;50.784;20.604;2023-07-13T03:59:37;26.70;53.40
43991;DHT22;29654;50.784;20.604;2023-07-13T04:04:43;26.80;53.40
43991;DHT22;29654;50.784;20.604;2023-07-13T04:09:47;26.90;53.30
43991;DHT22;29654;50.784;20.604;2023-07-13T04:14:49;27.00;53.60
43991;DHT22;29654;50.784;20.604;2023-07-13T04:19:52;27.00;53.30
43991;DHT22;29654;50.784;20.604;2023-07-13T04:24:56;27.10;53.20
43991;DHT22;29654;50.784;20.604;2023-07-13T04:29:59;27.10;53.30
43991;DHT22;29654;50.784;20.604;2023-07-13T04:35:01;27.20;53.10
43991;DHT22;29654;50.784;20.604;2023-07-13T04:40:07;27.20;53.10
43991;DHT22;29654;50.784;20.604;2023-07-13T04:45:13;27.30;53.20
43991;DHT22;29654;50.784;20.604;2023-07-13T04:50:16;27.30;53.10
43991;DHT22;29654;50.784;20.604;2023-07-13T04:55:25;27.30;53.20
43991;DHT22;29654;50.784;20.604;2023-07-13T05:00:31;27.40;53.30
43991;DHT22;29654;50.784;20.604;2023-07-13T05:05:34;27.30;53.10
43991;DHT22;29654;50.784;20.604;2023-07-13T05:10:38;27.40;53.10
43991;DHT22;29654;50.784;20.604;2023-07-13T05:15:40;27.40;53.10
43991;DHT22;29654;50.784;20.604;2023-07-13T05:20:43;27.50;53.20
43991;DHT22;29654;50.784;20.604;2023-07-13T05:25:47;27.50;53.10
43991;DHT22;29654;50.784;20.604;2023-07-13T05:30:49;27.50;53.00
43991;DHT22;29654;50.784;20.604;2023-07-13T05:35:52;27.50;53.00
43991;DHT22;29654;50.784;20.604;2023-07-13T05:40:57;27.60;53.30
43991;DHT22;29654;50.784;20.604;2023-07-13T05:46:00;27.60;53.30
43991;DHT22;29654;50.784;20.604;2023-07-13T05:51:02;27.70;53.10
43991;DHT22;29654;50.784;20.604;2023-07-13T05:56:06;27.80;53.00
43991;DHT22;29654;50.784;20.604;2023-07-13T06:01:11;27.90;53.10
43991;DHT22;29654;50.784;20.604;2023-07-13T06:06:15;27.90;52.80
43991;DHT22;29654;50.784;20.604;2023-07-13T06:11:21;28.00;52.80
43991;DHT22;29654;50.784;20.604;2023-07-13T06:16:24;28.10;53.10
43991;DHT22;29654;50.784;20.604;2023-07-13T06:21:27;28.30;53.00
43991;DHT22;29654;50.784;20.604;2023-07-13T06:26:31;28.50;52.40
43991;DHT22;29654;50.784;20.604;2023-07-13T06:31:34;28.60;51.20
43991;DHT22;29654;50.784;20.604;2023-07-13T06:36:36;28.60;50.40
43991;DHT22;29654;50.784;20.604;2023-07-13T06:41:40;28.70;49.90
43991;DHT22;29654;50.784;20.604;2023-07-13T06:46:48;28.80;49.80
43991;DHT22;29654;50.784;20.604;2023-07-13T06:51:50;28.90;49.70
43991;DHT22;29654;50.784;20.604;2023-07-13T06:56:54;29.00;49.30
43991;DHT22;29654;50.784;20.604;2023-07-13T07:01:57;29.20;48.60
43991;DHT22;29654;50.784;20.604;2023-07-13T07:06:59;29.30;48.30
43991;DHT22;29654;50.784;20.604;2023-07-13T07:12:04;29.40;48.40
43991;DHT22;29654;50.784;20.604;2023-07-13T07:17:07;29.50;48.50
43991;DHT22;29654;50.784;20.604;2023-07-13T07:22:10;29.60;47.50
43991;DHT22;29654;50.784;20.604;2023-07-13T07:27:14;29.60;47.60
43991;DHT22;29654;50.784;20.604;2023-07-13T07:32:16;29.60;47.70
43991;DHT22;29654;50.784;20.604;2023-07-13T07:37:19;29.80;47.60
43991;DHT22;29654;50.784;20.604;2023-07-13T07:42:23;30.00;48.20
43991;DHT22;29654;50.784;20.604;2023-07-13T07:47:26;30.10;47.30
43991;DHT22;29654;50.784;20.604;2023-07-13T07:52:30;30.30;47.20
43991;DHT22;29654;50.784;20.604;2023-07-13T07:57:34;30.50;47.20
43991;DHT22;29654;50.784;20.604;2023-07-13T08:02:37;30.70;46.50
43991;DHT22;29654;50.784;20.604;2023-07-13T08:07:41;30.80;46.60
43991;DHT22;29654;50.784;20.604;2023-07-13T08:12:45;31.10;46.60
43991;DHT22;29654;50.784;20.604;2023-07-13T08:17:48;31.30;46.30
43991;DHT22;29654;50.784;20.604;2023-07-13T08:22:51;31.50;46.10
43991;DHT22;29654;50.784;20.604;2023-07-13T08:27:55;31.70;45.20
43991;DHT22;29654;50.784;20.604;2023-07-13T08:32:58;32.00;44.90
43991;DHT22;29654;50.784;20.604;2023-07-13T08:38:01;32.10;44.30
43991;DHT22;29654;50.784;20.604;2023-07-13T08:43:07;32.30;44.30
43991;DHT22;29654;50.784;20.604;2023-07-13T08:48:16;32.50;43.40
43991;DHT22;29654;50.784;20.604;2023-07-13T08:53:21;32.70;43.00
43991;DHT22;29654;50.784;20.604;2023-07-13T08:58:27;32.90;42.40
43991;DHT22;29654;50.784;20.604;2023-07-13T09:03:37;33.20;41.80
43991;DHT22;29654;50.784;20.604;2023-07-13T09:08:55;33.40;41.90
43991;DHT22;29654;50.784;20.604;2023-07-13T09:14:11;33.60;40.60
43991;DHT22;29654;50.784;20.604;2023-07-13T09:19:33;33.70;40.60
43991;DHT22;29654;50.784;20.604;2023-07-13T09:24:38;33.90;41.10
43991;DHT22;29654;50.784;20.604;2023-07-13T09:29:47;34.00;40.70
43991;DHT22;29654;50.784;20.604;2023-07-13T09:34:53;34.10;40.20
43991;DHT22;29654;50.784;20.604;2023-07-13T09:39:58;34.30;40.20
43991;DHT22;29654;50.784;20.604;2023-07-13T09:45:03;34.40;39.60
43991;DHT22;29654;50.784;20.604;2023-07-13T09:50:10;34.50;39.30
43991;DHT22;29654;50.784;20.604;2023-07-13T09:55:26;34.60;39.40
43991;DHT22;29654;50.784;20.604;2023-07-13T10:00:32;34.70;38.60
43991;DHT22;29654;50.784;20.604;2023-07-13T10:05:39;34.80;38.70
43991;DHT22;29654;50.784;20.604;2023-07-13T10:10:43;34.90;39.10
43991;DHT22;29654;50.784;20.604;2023-07-13T10:15:47;34.80;40.00
43991;DHT22;29654;50.784;20.604;2023-07-13T10:20:54;34.70;39.90
43991;DHT22;29654;50.784;20.604;2023-07-13T10:25:57;34.50;39.80
43991;DHT22;29654;50.784;20.604;2023-07-13T10:31:06;34.30;40.00
43991;DHT22;29654;50.784;20.604;2023-07-13T10:36:16;34.00;39.80
43991;DHT22;29654;50.784;20.604;2023-07-13T10:41:25;33.70;40.10
43991;DHT22;29654;50.784;20.604;2023-07-13T10:46:31;33.40;40.60
43991;DHT22;29654;50.784;20.604;2023-07-13T10:51:34;33.10;41.20
43991;DHT22;29654;50.784;20.604;2023-07-13T10:56:39;32.80;41.20
43991;DHT22;29654;50.784;20.604;2023-07-13T11:02:08;32.70;41.50
43991;DHT22;29654;50.784;20.604;2023-07-13T11:07:19;32.50;41.50
43991;DHT22;29654;50.784;20.604;2023-07-13T11:12:29;32.40;41.60
43991;DHT22;29654;50.784;20.604;2023-07-13T11:17:54;32.30;41.50
43991;DHT22;29654;50.784;20.604;2023-07-13T11:23:30;32.10;41.80
43991;DHT22;29654;50.784;20.604;2023-07-13T11:28:42;32.10;42.10
43991;DHT22;29654;50.784;20.604;2023-07-13T11:33:57;32.10;42.40
43991;DHT22;29654;50.784;20.604;2023-07-13T11:39:03;32.10;43.00
43991;DHT22;29654;50.784;20.604;2023-07-13T11:44:12;32.00;43.10
43991;DHT22;29654;50.784;20.604;2023-07-13T11:49:21;31.90;43.90
43991;DHT22;29654;50.784;20.604;2023-07-13T11:54:27;31.70;43.50
43991;DHT22;29654;50.784;20.604;2023-07-13T11:59:32;31.50;43.80
43991;DHT22;29654;50.784;20.604;2023-07-13T12:04:37;31.20;43.80
43991;DHT22;29654;50.784;20.604;2023-07-13T12:09:39;30.90;43.90
43991;DHT22;29654;50.784;20.604;2023-07-13T12:14:42;30.50;44.00
43991;DHT22;29654;50.784;20.604;2023-07-13T12:19:47;30.30;44.60
43991;DHT22;29654;50.784;20.604;2023-07-13T12:24:51;30.00;45.00
43991;DHT22;29654;50.784;20.604;2023-07-13T12:30:01;29.80;44.70
43991;DHT22;29654;50.784;20.604;2023-07-13T12:35:15;29.60;43.90
43991;DHT22;29654;50.784;20.604;2023-07-13T12:40:32;29.20;42.70
43991;DHT22;29654;50.784;20.604;2023-07-13T12:45:35;28.70;43.10
43991;DHT22;29654;50.784;20.604;2023-07-13T12:50:41;28.20;43.70
43991;DHT22;29654;50.784;20.604;2023-07-13T12:55:48;27.80;44.30
43991;DHT22;29654;50.784;20.604;2023-07-13T13:00:54;27.30;44.90
43991;DHT22;29654;50.784;20.604;2023-07-13T13:06:02;27.00;45.10
43991;DHT22;29654;50.784;20.604;2023-07-13T13:11:05;26.70;45.60
43991;DHT22;29654;50.784;20.604;2023-07-13T13:16:10;26.40;45.90
43991;DHT22;29654;50.784;20.604;2023-07-13T13:21:15;26.10;46.30
43991;DHT22;29654;50.784;20.604;2023-07-13T13:26:19;25.80;46.60
43991;DHT22;29654;50.784;20.604;2023-07-13T13:31:23;25.50;46.80
43991;DHT22;29654;50.784;20.604;2023-07-13T13:36:27;25.30;47.30
43991;DHT22;29654;50.784;20.604;2023-07-13T13:41:30;25.10;47.70
43991;DHT22;29654;50.784;20.604;2023-07-13T13:46:32;24.90;47.80
43991;DHT22;29654;50.784;20.604;2023-07-13T13:51:36;24.70;48.10
43991;DHT22;29654;50.784;20.604;2023-07-13T13:56:40;24.50;48.60
43991;DHT22;29654;50.784;20.604;2023-07-13T14:01:45;24.20;48.90
43991;DHT22;29654;50.784;20.604;2023-07-13T14:06:50;24.10;49.60
43991;DHT22;29654;50.784;20.604;2023-07-13T14:11:53;24.00;50.10
43991;DHT22;29654;50.784;20.604;2023-07-13T14:16:55;23.90;50.20
43991;DHT22;29654;50.784;20.604;2023-07-13T14:21:59;23.90;50.30
43991;DHT22;29654;50.784;20.604;2023-07-13T14:27:02;24.00;50.80
43991;DHT22;29654;50.784;20.604;2023-07-13T14:32:07;24.10;50.80
43991;DHT22;29654;50.784;20.604;2023-07-13T14:37:16;24.20;51.30
43991;DHT22;29654;50.784;20.604;2023-07-13T14:42:19;24.30;51.60
43991;DHT22;29654;50.784;20.604;2023-07-13T14:47:21;24.40;51.20
43991;DHT22;29654;50.784;20.604;2023-07-13T14:52:25;24.40;51.10
43991;DHT22;29654;50.784;20.604;2023-07-13T14:57:28;24.40;51.40
43991;DHT22;29654;50.784;20.604;2023-07-13T15:02:32;24.40;51.30
43991;DHT22;29654;50.784;20.604;2023-07-13T15:07:37;24.40;51.60
43991;DHT22;29654;50.784;20.604;2023-07-13T15:12:40;24.40;51.90
43991;DHT22;29654;50.784;20.604;2023-07-13T15:17:44;24.40;51.80
43991;DHT22;29654;50.784;20.604;2023-07-13T15:22:50;24.50;51.80
43991;DHT22;29654;50.784;20.604;2023-07-13T15:27:54;24.50;51.70
43991;DHT22;29654;50.784;20.604;2023-07-13T15:33:00;24.50;51.60
43991;DHT22;29654;50.784;20.604;2023-07-13T15:38:18;24.50;51.70
43991;DHT22;29654;50.784;20.604;2023-07-13T15:43:22;24.60;52.10
43991;DHT22;29654;50.784;20.604;2023-07-13T15:48:26;24.60;51.80
43991;DHT22;29654;50.784;20.604;2023-07-13T15:53:32;24.80;51.80
43991;DHT22;29654;50.784;20.604;2023-07-13T15:58:36;24.90;51.80
43991;DHT22;29654;50.784;20.604;2023-07-13T16:03:39;25.10;51.50
43991;DHT22;29654;50.784;20.604;2023-07-13T16:08:43;25.30;51.20
43991;DHT22;29654;50.784;20.604;2023-07-13T16:13:47;25.40;51.10
43991;DHT22;29654;50.784;20.604;2023-07-13T16:18:56;25.40;50.70
43991;DHT22;29654;50.784;20.604;2023-07-13T16:24:02;25.40;50.60
43991;DHT22;29654;50.784;20.604;2023-07-13T16:29:14;25.40;50.50
43991;DHT22;29654;50.784;20.604;2023-07-13T16:34:18;25.50;50.60
43991;DHT22;29654;50.784;20.604;2023-07-13T16:39:22;25.40;50.30
43991;DHT22;29654;50.784;20.604;2023-07-13T16:44:26;25.40;50.50
43991;DHT22;29654;50.784;20.604;2023-07-13T16:49:31;25.40;50.40
43991;DHT22;29654;50.784;20.604;2023-07-13T16:54:38;25.40;50.30
43991;DHT22;29654;50.784;20.604;2023-07-13T16:59:42;25.40;50.40
43991;DHT22;29654;50.784;20.604;2023-07-13T17:04:46;25.40;50.40
43991;DHT22;29654;50.784;20.604;2023-07-13T17:09:50;25.50;50.60
43991;DHT22;29654;50.784;20.604;2023-07-13T17:14:54;25.60;51.10
43991;DHT22;29654;50.784;20.604;2023-07-13T17:19:58;25.80;50.80
43991;DHT22;29654;50.784;20.604;2023-07-13T17:25:08;25.90;50.50
43991;DHT22;29654;50.784;20.604;2023-07-13T17:30:16;26.10;50.30
43991;DHT22;29654;50.784;20.604;2023-07-13T17:35:24;26.20;49.90
43991;DHT22;29654;50.784;20.604;2023-07-13T17:40:30;26.30;49.70
43991;DHT22;29654;50.784;20.604;2023-07-13T17:45:33;26.40;49.30
43991;DHT22;29654;50.784;20.604;2023-07-13T17:50:38;26.40;49.20
43991;DHT22;29654;50.784;20.604;2023-07-13T17:55:46;26.50;49.40
43991;DHT22;29654;50.784;20.604;2023-07-13T18:00:49;26.40;49.50
43991;DHT22;29654;50.784;20.604;2023-07-13T18:05:52;26.40;49.40
43991;DHT22;29654;50.784;20.604;2023-07-13T18:11:00;26.40;49.30
43991;DHT22;29654;50.784;20.604;2023-07-13T18:16:04;26.30;49.70
43991;DHT22;29654;50.784;20.604;2023-07-13T18:21:08;26.20;49.50
43991;DHT22;29654;50.784;20.604;2023-07-13T18:26:16;26.00;49.50
43991;DHT22;29654;50.784;20.604;2023-07-13T18:31:22;25.80;49.80
43991;DHT22;29654;50.784;20.604;2023-07-13T18:36:36;25.70;49.70
43991;DHT22;29654;50.784;20.604;2023-07-13T18:41:41;25.50;49.70
43991;DHT22;29654;50.784;20.604;2023-07-13T18:46:45;25.40;49.80
43991;DHT22;29654;50.784;20.604;2023-07-13T18:51:49;25.20;49.90
43991;DHT22;29654;50.784;20.604;2023-07-13T18:56:53;25.10;50.10
43991;DHT22;29654;50.784;20.604;2023-07-13T19:01:56;24.90;50.40
43991;DHT22;29654;50.784;20.604;2023-07-13T19:06:58;24.80;50.50
43991;DHT22;29654;50.784;20.604;2023-07-13T19:12:03;24.70;50.70
43991;DHT22;29654;50.784;20.604;2023-07-13T19:17:09;24.50;51.00
43991;DHT22;29654;50.784;20.604;2023-07-13T19:22:15;24.50;51.30
43991;DHT22;29654;50.784;20.604;2023-07-13T19:27:21;24.30;51.30
43991;DHT22;29654;50.784;20.604;2023-07-13T19:32:24;24.20;51.50
43991;DHT22;29654;50.784;20.604;2023-07-13T19:37:27;24.10;51.50
43991;DHT22;29654;50.784;20.604;2023-07-13T19:42:31;24.00;51.60
43991;DHT22;29654;50.784;20.604;2023-07-13T19:47:34;24.00;51.80
43991;DHT22;29654;50.784;20.604;2023-07-13T19:52:41;23.90;51.80
43991;DHT22;29654;50.784;20.604;2023-07-13T19:57:46;23.80;51.90
43991;DHT22;29654;50.784;20.604;2023-07-13T20:02:49;23.70;52.10
43991;DHT22;29654;50.784;20.604;2023-07-13T20:07:56;23.60;52.20
43991;DHT22;29654;50.784;20.604;2023-07-13T20:13:01;23.60;52.60
43991;DHT22;29654;50.784;20.604;2023-07-13T20:18:04;23.50;52.70
43991;DHT22;29654;50.784;20.604;2023-07-13T20:23:11;23.40;52.60
43991;DHT22;29654;50.784;20.604;2023-07-13T20:28:17;23.40;53.00
43991;DHT22;29654;50.784;20.604;2023-07-13T20:33:24;23.30;52.90
43991;DHT22;29654;50.784;20.604;2023-07-13T20:38:27;23.30;53.00
43991;DHT22;29654;50.784;20.604;2023-07-13T20:43:31;23.30;53.00
43991;DHT22;29654;50.784;20.604;2023-07-13T20:48:37;23.20;53.20
43991;DHT22;29654;50.784;20.604;2023-07-13T20:53:41;23.20;53.30
43991;DHT22;29654;50.784;20.604;2023-07-13T20:58:45;23.10;53.20
43991;DHT22;29654;50.784;20.604;2023-07-13T21:03:49;23.10;53.20
43991;DHT22;29654;50.784;20.604;2023-07-13T21:08:53;23.10;53.20
43991;DHT22;29654;50.784;20.604;2023-07-13T21:13:58;23.10;53.30
43991;DHT22;29654;50.784;20.604;2023-07-13T21:19:02;23.00;53.50
43991;DHT22;29654;50.784;20.604;2023-07-13T21:24:06;23.00;53.50
43991;DHT22;29654;50.784;20.604;2023-07-13T21:29:11;23.00;53.70
43991;DHT22;29654;50.784;20.604;2023-07-13T21:34:17;23.10;54.10
43991;DHT22;29654;50.784;20.604;2023-07-13T21:39:21;23.10;54.60
43991;DHT22;29654;50.784;20.604;2023-07-13T21:44:27;23.10;54.40
43991;DHT22;29654;50.784;20.604;2023-07-13T21:49:30;23.10;54.80
43991;DHT22;29654;50.784;20.604;2023-07-13T21:54:34;23.10;54.60
43991;DHT22;29654;50.784;20.604;2023-07-13T21:59:37;23.10;54.60
43991;DHT22;29654;50.784;20.604;2023-07-13T22:04:40;23.10;54.80
43991;DHT22;29654;50.784;20.604;2023-07-13T22:09:43;23.20;54.80
43991;DHT22;29654;50.784;20.604;2023-07-13T22:14:47;23.20;54.80
43991;DHT22;29654;50.784;20.604;2023-07-13T22:19:49;23.20;55.10
43991;DHT22;29654;50.784;20.604;2023-07-13T22:24:52;23.20;55.00
43991;DHT22;29654;50.784;20.604;2023-07-13T22:29:56;23.20;55.10
43991;DHT22;29654;50.784;20.604;2023-07-13T22:34:59;23.30;55.30
43991;DHT22;29654;50.784;20.604;2023-07-13T22:40:02;23.30;55.10
43991;DHT22;29654;50.784;20.604;2023-07-13T22:45:11;23.30;55.10
43991;DHT22;29654;50.784;20.604;2023-07-13T22:50:16;23.30;55.20
43991;DHT22;29654;50.784;20.604;2023-07-13T22:55:19;23.30;55.20
43991;DHT22;29654;50.784;20.604;2023-07-13T23:00:23;23.30;55.10
43991;DHT22;29654;50.784;20.604;2023-07-13T23:05:26;23.40;55.30
43991;DHT22;29654;50.784;20.604;2023-07-13T23:10:28;23.40;55.20
43991;DHT22;29654;50.784;20.604;2023-07-13T23:15:33;23.40;55.20
43991;DHT22;29654;50.784;20.604;2023-07-13T23:20:36;23.40;55.30
43991;DHT22;29654;50.784;20.604;2023-07-13T23:25:39;23.40;55.30
43991;DHT22;29654;50.784;20.604;2023-07-13T23:30:46;23.40;55.30
43991;DHT22;29654;50.784;20.604;2023-07-13T23:35:50;23.50;55.60
43991;DHT22;29654;50.784;20.604;2023-07-13T23:40:55;23.50;55.30
43991;DHT22;29654;50.784;20.604;2023-07-13T23:46:00;23.50;55.20
43991;DHT22;29654;50.784;20.604;2023-07-13T23:51:02;23.50;55.10
43991;DHT22;29654;50.784;20.604;2023-07-13T23:56:13;23.50;55.00
